Time;durP1;ratioP1;P1;durP2;ratioP2;P2;SDS_P1;SDS_P2;PMS_P1;PMS_P2;Temp;Humidity;BMP_temperature;BMP_pressure;BME280_temperature;BME280_humidity;BME280_pressure;Samples;Min_cycle;Max_cycle;Signal;HPM_P1;HPM_P2
2022/03/07 00:01:16;;;;;;;6.38;1.50;;;;;;;2.03;44.12;99170.66;4948514;29;20168;-77
2022/03/07 00:03:43;;;;;;;2.03;1.40;;;;;;;2.02;43.53;99168.94;4948099;29;20410;-78
2022/03/07 00:06:09;;;;;;;2.28;1.40;;;;;;;1.82;43.93;99139.53;4948810;29;20110;-78
2022/03/07 00:08:36;;;;;;;3.65;1.65;;;;;;;1.88;44.07;99155.88;4948198;29;20043;-77
2022/03/07 00:11:03;;;;;;;3.65;1.10;;;;;;;1.86;43.99;99156.72;4932364;29;20066;-78
2022/03/07 00:13:29;;;;;;;2.33;1.27;;;;;;;1.84;44.41;99155.81;4933166;29;20591;-77
2022/03/07 00:15:55;;;;;;;1.95;1.38;;;;;;;1.69;44.62;99147.00;4928471;29;20047;-78
2022/03/07 00:18:21;;;;;;;2.65;1.30;;;;;;;1.69;44.63;99149.56;4948980;29;20091;-78
2022/03/07 00:20:47;;;;;;;1.85;1.35;;;;;;;1.78;44.02;99154.88;4948026;29;20070;-77
2022/03/07 00:23:15;;;;;;;2.53;1.38;;;;;;;1.67;44.66;99135.84;4917214;29;20085;-77
2022/03/07 00:25:41;;;;;;;2.05;1.00;;;;;;;1.67;44.55;99147.84;4933130;29;20479;-78
2022/03/07 00:28:07;;;;;;;1.50;1.27;;;;;;;1.65;44.66;99145.25;4948605;29;20129;-79
2022/03/07 00:30:40;;;;;;;2.35;1.25;;;;;;;1.58;44.81;99139.13;4916244;28;20139;-77
2022/03/07 00:33:15;;;;;;;2.03;1.10;;;;;;;1.52;44.94;99130.47;4931433;29;20500;-79
2022/03/07 00:35:41;;;;;;;1.23;1.10;;;;;;;1.63;44.64;99147.78;4950422;29;20090;-77
2022/03/07 00:38:07;;;;;;;4.68;1.45;;;;;;;1.53;45.24;99133.09;4933359;29;20039;-78
2022/03/07 00:40:33;;;;;;;1.73;1.30;;;;;;;1.55;45.00;99130.53;4950320;29;20413;-78
2022/03/07 00:42:59;;;;;;;1.75;1.40;;;;;;;1.68;45.15;99147.00;4931531;29;20077;-77
2022/03/07 00:45:26;;;;;;;1.27;1.05;;;;;;;1.71;45.03;99139.34;4951882;29;20428;-77
2022/03/07 00:47:52;;;;;;;1.48;1.20;;;;;;;1.65;44.85;99130.72;4955060;29;20035;-76
2022/03/07 00:50:21;;;;;;;3.78;1.40;;;;;;;1.67;44.64;99135.00;4941077;29;20397;-77
2022/03/07 00:52:47;;;;;;;3.05;1.23;;;;;;;1.67;45.17;99135.84;4926452;29;20031;-78
2022/03/07 00:55:13;;;;;;;1.95;1.33;;;;;;;1.73;45.31;99150.50;4931118;29;20066;-78
2022/03/07 00:57:39;;;;;;;7.55;1.42;;;;;;;1.69;44.96;99144.44;4952225;29;20046;-78
2022/03/07 01:00:06;;;;;;;2.10;1.35;;;;;;;1.51;45.10;99111.69;4931472;29;20031;-78
2022/03/07 01:02:33;;;;;;;3.00;1.48;;;;;;;1.77;45.17;99136.88;4931510;29;20035;-78
2022/03/07 01:05:00;;;;;;;2.38;1.77;;;;;;;1.91;44.87;99147.34;4931052;29;20036;-77
2022/03/07 01:07:28;;;;;;;2.65;1.52;;;;;;;1.93;45.31;99132.84;4900225;29;20055;-77
2022/03/07 01:09:54;;;;;;;1.80;1.50;;;;;;;2.02;45.16;99133.00;4932382;29;21235;-78
2022/03/07 01:12:20;;;;;;;1.50;1.30;;;;;;;2.00;45.12;99128.66;4930533;29;20557;-78
2022/03/07 01:14:46;;;;;;;2.10;1.20;;;;;;;1.98;45.28;99120.13;4915558;29;20051;-77
2022/03/07 01:17:12;;;;;;;3.08;1.63;;;;;;;2.06;45.14;99131.34;4931951;29;20047;-76
2022/03/07 01:19:38;;;;;;;1.45;1.20;;;;;;;2.10;44.50;99126.25;4915881;29;20054;-77
2022/03/07 01:22:04;;;;;;;4.25;1.50;;;;;;;2.08;44.48;99127.97;4949609;29;20043;-78
2022/03/07 01:24:30;;;;;;;4.22;1.40;;;;;;;1.94;44.71;99114.94;4933498;29;20751;-76
2022/03/07 01:26:56;;;;;;;3.80;1.40;;;;;;;2.01;44.78;99126.16;4970078;29;20042;-77
2022/03/07 01:29:22;;;;;;;2.85;1.42;;;;;;;2.04;45.45;99121.06;4937531;29;20039;-77
2022/03/07 01:31:48;;;;;;;4.57;1.40;;;;;;;1.98;45.38;99114.97;4933320;29;20049;-77
2022/03/07 01:34:14;;;;;;;2.00;1.30;;;;;;;1.98;45.09;99117.53;4950757;29;20046;-77
2022/03/07 01:36:41;;;;;;;3.03;1.55;;;;;;;1.79;45.04;99096.72;4970681;29;20066;-78
2022/03/07 01:39:07;;;;;;;2.42;1.30;;;;;;;1.93;45.91;99112.31;4952861;29;20049;-78
2022/03/07 01:41:33;;;;;;;2.03;1.42;;;;;;;1.90;45.52;99104.56;4952378;29;20047;-77
2022/03/07 01:43:59;;;;;;;2.67;1.40;;;;;;;1.97;45.90;99114.09;4936281;29;20114;-77
2022/03/07 01:46:25;;;;;;;2.78;1.33;;;;;;;1.95;46.09;99113.22;4935724;29;20051;-77
2022/03/07 01:48:51;;;;;;;3.60;1.15;;;;;;;1.95;45.61;99120.91;4929246;29;20070;-77
2022/03/07 01:51:17;;;;;;;2.05;1.17;;;;;;;1.82;45.50;99104.47;4932603;29;20042;-77
2022/03/07 01:53:45;;;;;;;2.05;1.20;;;;;;;1.87;46.32;99122.50;4931247;29;20073;-76
2022/03/07 01:56:14;;;;;;;2.00;1.30;;;;;;;1.90;46.15;99118.28;4930590;29;20509;-79
2022/03/07 01:58:40;;;;;;;1.58;1.40;;;;;;;1.74;46.11;99100.94;4913109;29;20099;-77
2022/03/07 02:01:06;;;;;;;3.88;1.70;;;;;;;1.77;46.08;99119.78;4929925;29;20525;-78
2022/03/07 02:03:32;;;;;;;2.28;1.40;;;;;;;1.68;45.76;99106.81;4913843;28;20054;-76
2022/03/07 02:05:58;;;;;;;3.65;1.35;;;;;;;1.70;45.46;99125.66;4930215;29;20047;-77
2022/03/07 02:08:26;;;;;;;2.78;1.15;;;;;;;1.61;46.21;99117.81;4930312;29;20083;-78
2022/03/07 02:10:57;;;;;;;2.70;1.60;;;;;;;1.65;45.65;99128.16;4899660;29;20046;-77
2022/03/07 02:13:24;;;;;;;2.38;1.63;;;;;;;1.61;45.79;99128.09;4930594;29;20458;-78
2022/03/07 02:15:58;;;;;;;3.53;1.50;;;;;;;1.60;46.22;99127.22;4915376;29;20073;-77
2022/03/07 02:18:30;;;;;;;4.72;1.33;;;;;;;1.57;46.79;99121.16;4930429;29;20054;-78
2022/03/07 02:21:15;;;;;;;1.67;1.10;;;;;;;1.55;47.00;99117.72;4931192;29;20043;-76
2022/03/07 02:23:51;;;;;;;11.68;2.50;;;;;;;1.52;46.96;99113.41;4931581;29;20047;-79
2022/03/07 02:26:18;;;;;;;4.25;1.45;;;;;;;1.60;46.38;99124.63;4930081;29;20047;-77
2022/03/07 02:28:46;;;;;;;3.28;1.75;;;;;;;1.58;47.04;99120.34;4936849;29;20047;-78
2022/03/07 02:31:20;;;;;;;4.22;1.60;;;;;;;1.63;46.11;99134.09;4948869;28;20579;-77
2022/03/07 02:33:53;;;;;;;3.38;1.55;;;;;;;1.58;46.48;99138.28;4932560;29;20130;-78
2022/03/07 02:36:21;;;;;;;3.42;1.40;;;;;;;1.39;46.93;99116.59;4929666;29;20047;-77
2022/03/07 02:38:48;;;;;;;7.88;1.45;;;;;;;1.46;46.73;99134.66;4914338;29;20133;-76
2022/03/07 02:41:14;;;;;;;3.83;1.50;;;;;;;1.45;47.14;99142.34;4930931;29;20099;-79
2022/03/07 02:43:41;;;;;;;4.35;1.60;;;;;;;1.29;47.43;99120.69;4945980;29;20047;-78
2022/03/07 02:46:07;;;;;;;3.13;1.80;;;;;;;1.27;47.27;99132.63;4947643;29;20047;-77
2022/03/07 02:48:33;;;;;;;5.35;1.90;;;;;;;1.30;47.76;99137.81;4948125;29;20047;-77
2022/03/07 02:50:59;;;;;;;4.72;1.40;;;;;;;1.29;47.74;99139.50;4914227;29;20401;-78
2022/03/07 02:53:26;;;;;;;6.88;1.40;;;;;;;1.29;48.13;99139.50;4913930;29;20042;-79
2022/03/07 02:55:53;;;;;;;4.43;1.23;;;;;;;1.27;48.00;99133.50;4913811;29;20047;-78
2022/03/07 02:58:19;;;;;;;1.80;1.30;;;;;;;1.31;47.76;99137.84;4913923;29;20120;-77
2022/03/07 03:00:45;;;;;;;1.65;1.10;;;;;;;1.28;47.69;99140.34;4929336;29;20067;-78
2022/03/07 03:03:11;;;;;;;4.43;1.38;;;;;;;1.30;47.58;99142.94;4931228;29;20097;-77
2022/03/07 03:05:37;;;;;;;7.78;1.48;;;;;;;1.28;48.65;99126.66;4930637;29;20073;-79
2022/03/07 03:08:03;;;;;;;2.97;1.30;;;;;;;1.41;48.13;99138.00;4929656;29;20323;-77
2022/03/07 03:10:29;;;;;;;5.88;1.40;;;;;;;1.32;48.16;99134.44;4946904;29;20512;-78
2022/03/07 03:12:55;;;;;;;3.13;1.85;;;;;;;1.41;48.51;99135.44;4930223;29;20054;-78
2022/03/07 03:15:21;;;;;;;1.52;1.10;;;;;;;1.37;47.64;99137.09;4947729;28;20043;-77
2022/03/07 03:17:47;;;;;;;2.13;1.20;;;;;;;1.33;47.84;99140.41;4933074;29;20090;-78
2022/03/07 03:20:15;;;;;;;2.05;1.20;;;;;;;1.26;47.84;99133.44;4932766;29;20433;-78
2022/03/07 03:22:42;;;;;;;2.20;1.10;;;;;;;1.25;48.06;99137.72;4932846;29;20535;-78
2022/03/07 03:25:09;;;;;;;1.38;1.05;;;;;;;1.26;48.02;99138.56;4951489;29;20512;-78
2022/03/07 03:27:37;;;;;;;2.45;1.10;;;;;;;1.24;47.94;99138.56;4917454;29;20133;-78
2022/03/07 03:30:08;;;;;;;3.25;1.58;;;;;;;1.19;48.18;99135.91;4916584;29;20051;-78
2022/03/07 03:32:34;;;;;;;11.25;1.70;;;;;;;1.13;49.20;99135.81;4933144;29;20055;-78
2022/03/07 03:35:00;;;;;;;10.02;1.70;;;;;;;1.04;48.65;99122.81;4948630;29;20095;-80
2022/03/07 03:37:26;;;;;;;6.03;1.42;;;;;;;1.20;49.25;99144.47;4932316;29;20047;-77
2022/03/07 03:39:53;;;;;;;3.80;1.35;;;;;;;1.25;49.11;99144.53;4933884;29;20087;-76
2022/03/07 03:42:19;;;;;;;6.28;2.30;;;;;;;1.14;48.84;99118.72;4902072;29;20106;-77
2022/03/07 03:44:45;;;;;;;6.50;1.70;;;;;;;1.28;49.17;99135.22;4932437;29;20053;-76
2022/03/07 03:47:11;;;;;;;8.10;1.42;;;;;;;1.19;48.55;99128.22;4933083;29;20035;-77
2022/03/07 03:49:37;;;;;;;4.13;1.50;;;;;;;1.06;49.22;99103.19;4949681;29;20054;-78
2022/03/07 03:52:03;;;;;;;8.35;1.75;;;;;;;0.84;48.61;99082.28;4932845;29;20102;-77
2022/03/07 03:54:30;;;;;;;3.17;1.40;;;;;;;1.12;48.78;99121.25;4930263;29;20054;-78
2022/03/07 03:56:55;;;;;;;3.80;1.58;;;;;;;1.11;49.32;99124.66;4917303;29;20047;-78
2022/03/07 03:59:22;;;;;;;6.43;1.70;;;;;;;1.08;49.62;99136.56;4934313;29;20043;-77
2022/03/07 04:01:48;;;;;;;7.38;1.60;;;;;;;1.07;49.77;99135.69;4936154;29;20050;-77
2022/03/07 04:04:14;;;;;;;3.92;1.95;;;;;;;1.06;49.64;99126.25;4959110;28;20046;-78
2022/03/07 04:06:41;;;;;;;5.97;1.83;;;;;;;0.92;49.54;99109.78;4959107;29;20078;-77
2022/03/07 04:09:16;;;;;;;6.05;2.17;;;;;;;1.03;49.58;99131.31;4938568;29;20051;-79
2022/03/07 04:11:43;;;;;;;4.15;1.33;;;;;;;1.01;49.92;99133.88;4934427;29;20138;-76
2022/03/07 04:14:09;;;;;;;4.13;1.70;;;;;;;1.01;49.41;99130.44;4931564;29;20054;-78
2022/03/07 04:16:37;;;;;;;10.80;1.80;;;;;;;1.01;49.32;99130.44;4950690;29;20098;-78
2022/03/07 04:19:07;;;;;;;3.47;1.38;;;;;;;0.87;49.87;99110.53;4965047;29;20107;-78
2022/03/07 04:21:34;;;;;;;10.02;1.67;;;;;;;0.83;49.56;99102.78;4949274;29;20432;-78
2022/03/07 04:24:01;;;;;;;8.05;1.80;;;;;;;0.99;49.61;99129.56;4936325;29;20042;-78
2022/03/07 04:26:27;;;;;;;2.75;1.10;;;;;;;0.95;50.15;99138.88;4935385;29;20051;-78
2022/03/07 04:28:53;;;;;;;5.07;1.30;;;;;;;0.82;50.03;99122.38;4932868;29;20110;-77
2022/03/07 04:31:19;;;;;;;5.40;1.42;;;;;;;0.95;49.65;99138.88;4932541;29;20508;-78
2022/03/07 04:33:45;;;;;;;11.55;1.38;;;;;;;0.87;50.23;99128.47;4935996;29;20070;-76
2022/03/07 04:36:14;;;;;;;4.88;1.58;;;;;;;0.77;49.95;99110.34;4916490;29;20405;-77
2022/03/07 04:38:40;;;;;;;7.85;1.30;;;;;;;0.99;50.06;99137.25;4916759;29;20429;-78
2022/03/07 04:41:06;;;;;;;3.72;1.48;;;;;;;0.88;50.32;99117.41;4932075;29;20094;-77
2022/03/07 04:43:33;;;;;;;2.38;1.42;;;;;;;1.05;50.63;99139.91;4933143;29;20055;-79
2022/03/07 04:45:59;;;;;;;1.90;1.20;;;;;;;1.03;50.55;99136.44;4932174;29;20102;-78
2022/03/07 04:48:28;;;;;;;2.20;1.13;;;;;;;1.03;50.45;99132.19;4915939;29;21493;-77
2022/03/07 04:50:54;;;;;;;2.60;1.38;;;;;;;1.02;50.56;99127.91;4916509;29;20045;-78
2022/03/07 04:53:20;;;;;;;5.57;1.35;;;;;;;0.84;50.59;99102.78;4948985;29;20047;-78
2022/03/07 04:55:47;;;;;;;1.83;1.20;;;;;;;0.99;50.31;99124.44;4921808;29;20792;-79
2022/03/07 04:58:13;;;;;;;4.03;1.30;;;;;;;0.96;50.23;99119.25;4949008;29;20102;-78
2022/03/07 05:00:39;;;;;;;2.15;1.20;;;;;;;1.00;50.26;99121.00;4931887;29;20046;-78
2022/03/07 05:03:07;;;;;;;2.83;1.60;;;;;;;0.99;51.07;99120.16;4914705;29;20094;-78
2022/03/07 05:05:33;;;;;;;4.88;1.50;;;;;;;0.95;50.44;99117.53;4934210;29;20046;-77
2022/03/07 05:07:59;;;;;;;3.40;1.55;;;;;;;1.08;50.86;99139.13;4949243;29;20050;-79
2022/03/07 05:10:25;;;;;;;3.08;1.70;;;;;;;1.09;50.51;99118.63;4949307;29;20053;-77
2022/03/07 05:12:55;;;;;;;2.45;1.38;;;;;;;1.09;50.53;99130.59;4931405;29;20054;-78
2022/03/07 05:15:21;;;;;;;3.20;1.52;;;;;;;1.11;50.69;99126.34;4956469;29;20074;-79
2022/03/07 05:17:51;;;;;;;6.13;1.65;;;;;;;1.10;50.61;99128.03;4926750;29;20047;-80
2022/03/07 05:20:17;;;;;;;7.18;2.47;;;;;;;1.03;50.68;99104.00;4916614;29;20051;-78
2022/03/07 05:22:44;;;;;;;4.07;1.83;;;;;;;1.20;50.73;99129.97;4949602;29;20051;-78
2022/03/07 05:25:12;;;;;;;5.57;1.65;;;;;;;1.26;50.57;99129.19;4929438;29;20584;-78
2022/03/07 05:27:39;;;;;;;4.07;1.60;;;;;;;1.30;50.92;99127.53;4917200;29;20074;-78
2022/03/07 05:30:07;;;;;;;10.27;2.05;;;;;;;1.36;50.21;99127.66;4915681;29;20035;-78
2022/03/07 05:32:33;;;;;;;6.15;2.00;;;;;;;1.34;50.83;99119.94;4931037;29;20059;-79
2022/03/07 05:34:59;;;;;;;6.97;1.98;;;;;;;1.55;50.54;99135.66;4917617;29;20046;-77
2022/03/07 05:37:25;;;;;;;5.57;1.80;;;;;;;1.50;50.14;99122.78;4918680;29;20035;-78
2022/03/07 05:39:52;;;;;;;6.03;2.40;;;;;;;1.58;50.30;99131.44;4940797;29;20485;-78
2022/03/07 05:42:18;;;;;;;7.72;2.25;;;;;;;1.61;50.56;99134.06;4968188;29;20039;-78
2022/03/07 05:44:44;;;;;;;6.15;2.10;;;;;;;1.62;49.90;99147.78;4960833;29;20057;-78
2022/03/07 05:47:10;;;;;;;4.90;1.85;;;;;;;1.48;49.91;99125.28;4932715;29;20042;-78
2022/03/07 05:49:36;;;;;;;4.63;1.73;;;;;;;1.50;50.23;99120.22;4949065;29;20047;-78
2022/03/07 05:52:03;;;;;;;6.22;2.22;;;;;;;1.73;50.04;99148.78;4919045;29;20159;-79
2022/03/07 05:54:29;;;;;;;8.38;2.35;;;;;;;1.75;50.17;99147.13;4910837;29;20049;-79
2022/03/07 05:56:59;;;;;;;5.10;1.95;;;;;;;1.78;50.27;99144.59;4932168;29;20213;-78
2022/03/07 05:59:25;;;;;;;5.53;2.30;;;;;;;1.81;49.81;99138.66;4948139;29;20067;-79
2022/03/07 06:01:51;;;;;;;6.90;2.00;;;;;;;1.85;49.63;99139.59;4933097;29;20106;-77
2022/03/07 06:04:18;;;;;;;4.80;2.03;;;;;;;1.82;50.41;99134.41;4949114;29;20046;-77
2022/03/07 06:06:54;;;;;;;6.22;2.03;;;;;;;1.87;50.00;99133.63;4932600;29;20061;-80
2022/03/07 06:09:27;;;;;;;5.88;2.55;;;;;;;1.89;50.06;99124.25;4918397;29;20065;-80
2022/03/07 06:11:53;;;;;;;6.32;2.35;;;;;;;2.08;49.68;99148.50;4934916;29;20773;-77
2022/03/07 06:14:22;;;;;;;5.65;2.25;;;;;;;2.10;49.15;99159.63;4932626;29;20043;-78
2022/03/07 06:16:54;;;;;;;10.02;2.40;;;;;;;2.15;48.98;99161.41;4929904;29;20054;-78
2022/03/07 06:19:20;;;;;;;;;;;;;;;2.17;49.20;99149.47;4956500;29;20539;-79
2022/03/07 06:21:46;;;;;;;5.43;2.03;;;;;;;2.19;49.76;99153.78;4951476;29;19922;-79
2022/03/07 06:24:15;;;;;;;8.15;2.55;;;;;;;2.17;48.63;99131.50;4955019;29;20050;-80
2022/03/07 06:26:41;;;;;;;8.10;2.53;;;;;;;2.29;48.81;99136.81;4922580;29;20125;-77
2022/03/07 06:29:08;;;;;;;9.73;2.25;;;;;;;2.42;48.70;99155.84;4935304;29;20047;-78
2022/03/07 06:31:37;;;;;;;6.55;2.38;;;;;;;2.50;49.03;99156.78;4935103;29;20062;-80
2022/03/07 06:34:12;;;;;;;7.03;2.45;;;;;;;2.39;48.95;99138.66;4932829;29;20047;-78
2022/03/07 06:36:46;;;;;;;4.90;2.22;;;;;;;2.65;48.42;99162.97;4949389;29;20075;-78
2022/03/07 06:39:25;;;;;;;17.23;3.05;;;;;;;2.75;48.92;99167.38;4924832;29;20497;-79
2022/03/07 06:41:55;;;;;;;;;;;;;;;2.85;48.32;99164.09;4926843;29;20481;-78
2022/03/07 06:44:24;;;;;;;8.55;2.28;;;;;;;2.36;48.32;99087.25;4915086;29;19924;-77
2022/03/07 06:47:22;;;;;;;3.95;2.45;;;;;;;2.82;48.16;99164.06;4931397;29;20043;-79
2022/03/07 06:49:56;;;;;;;8.50;2.50;;;;;;;2.92;48.04;99167.59;4943989;28;20445;-78
2022/03/07 06:52:24;;;;;;;2.90;1.85;;;;;;;2.97;47.70;99147.97;4933905;29;20031;-78
2022/03/07 06:54:50;;;;;;;5.45;1.90;;;;;;;3.24;47.83;99163.66;4934558;29;20086;-79
2022/03/07 06:57:21;;;;;;;7.82;2.40;;;;;;;3.36;47.36;99155.22;4936964;29;20532;-78
2022/03/07 06:59:50;;;;;;;5.45;2.10;;;;;;;3.57;47.33;99164.84;4938147;29;20051;-77
2022/03/07 07:02:19;;;;;;;7.97;1.85;;;;;;;3.56;47.00;99143.41;4940857;29;20059;-78
2022/03/07 07:04:45;;;;;;;10.35;5.07;;;;;;;3.69;46.71;99156.38;4959477;29;20047;-79
2022/03/07 07:10:57;;;;;;;4.50;2.35;;;;;;;3.86;46.71;99167.66;4934147;29;20082;-80
2022/03/07 07:13:43;;;;;;;;;;;;;;;;;;;;;
2022/03/07 07:16:11;;;;;;;7.80;2.30;;;;;;;3.74;45.90;99159.84;4932057;29;20050;-79
2022/03/07 07:18:37;;;;;;;10.98;2.58;;;;;;;3.69;46.31;99148.63;4949762;29;20039;-79
2022/03/07 07:21:06;;;;;;;11.23;2.88;;;;;;;3.63;46.39;99136.59;4953492;29;20086;-78
2022/03/07 07:23:36;;;;;;;4.13;2.28;;;;;;;3.65;46.37;99155.47;4941266;29;20134;-78
2022/03/07 07:26:14;;;;;;;7.13;2.30;;;;;;;3.23;45.90;99101.06;4928909;29;20054;-80
2022/03/07 07:28:40;;;;;;;8.15;2.47;;;;;;;3.50;46.11;99163.91;4951028;29;20082;-78
2022/03/07 07:31:13;;;;;;;7.57;3.08;;;;;;;2.77;46.13;99051.75;4930190;29;20058;-79
2022/03/07 07:33:39;;;;;;;7.82;2.67;;;;;;;3.41;46.00;99140.69;4947681;29;20043;-79
2022/03/07 07:36:05;;;;;;;6.50;2.63;;;;;;;3.50;46.34;99160.50;4912885;29;20099;-78
2022/03/07 07:38:31;;;;;;;9.02;2.80;;;;;;;3.48;45.96;99142.47;4939440;29;20077;-79
2022/03/07 07:40:57;;;;;;;9.38;2.95;;;;;;;3.65;45.89;99152.03;4920089;29;20035;-78
2022/03/07 07:43:23;;;;;;;7.43;2.47;;;;;;;3.72;45.76;99148.66;4936610;29;20139;-78
2022/03/07 07:45:49;;;;;;;6.45;2.80;;;;;;;3.75;46.17;99135.84;4921525;29;20154;-79
2022/03/07 07:48:15;;;;;;;5.90;2.17;;;;;;;3.83;45.72;99136.78;4937814;29;20039;-78
2022/03/07 07:50:41;;;;;;;6.32;2.15;;;;;;;4.04;45.39;99155.81;4937846;29;20047;-78
2022/03/07 07:53:07;;;;;;;8.10;2.10;;;;;;;4.02;45.51;99116.31;4924449;29;20039;-79
2022/03/07 07:55:36;;;;;;;3.20;2.22;;;;;;;4.27;45.04;99129.34;4926992;29;20044;-78
2022/03/07 07:58:04;;;;;;;5.55;2.13;;;;;;;4.37;45.40;99136.25;4929339;29;20059;-77
2022/03/07 08:00:30;;;;;;;4.13;1.70;;;;;;;4.14;44.16;99100.91;4929002;29;20541;-76
2022/03/07 08:03:07;;;;;;;4.18;1.73;;;;;;;4.36;44.27;99131.94;4930022;29;20047;-80
2022/03/07 08:05:33;;;;;;;;;;;;;;;4.58;44.25;99147.53;4930224;29;20076;-80
2022/03/07 08:08:07;;;;;;;10.00;2.53;;;;;;;4.59;44.24;99144.97;4915190;29;19918;-79
2022/03/07 08:10:44;;;;;;;8.32;2.08;;;;;;;4.63;44.33;99138.09;4914662;29;20397;-77
2022/03/07 08:13:13;;;;;;;4.38;1.80;;;;;;;4.67;43.98;99153.59;4915788;29;20040;-79
2022/03/07 08:15:47;;;;;;;5.35;1.90;;;;;;;4.53;43.70;99121.75;4929852;29;20044;-80
2022/03/07 08:18:21;;;;;;;7.50;1.67;;;;;;;4.64;43.58;99112.31;4931127;29;20114;-78
2022/03/07 08:20:47;;;;;;;6.70;1.83;;;;;;;5.06;43.20;99152.91;4914898;29;20047;-79
2022/03/07 08:23:28;;;;;;;8.85;2.15;;;;;;;4.99;43.46;99095.25;4913715;29;20109;-80
2022/03/07 08:26:24;;;;;;;4.38;2.38;;;;;;;5.36;42.55;99097.06;4922871;29;20150;-77
2022/03/07 08:28:49;;;;;;;5.65;2.63;;;;;;;5.69;42.39;99126.34;4930166;29;20040;-79
2022/03/07 08:31:28;;;;;;;11.50;3.20;;;;;;;5.73;42.67;99115.16;4914343;29;20057;-78
2022/03/07 08:33:54;;;;;;;8.10;2.90;;;;;;;5.85;42.05;99137.50;4928596;29;20544;-79
2022/03/07 08:36:26;;;;;;;5.63;2.15;;;;;;;5.87;41.22;99126.34;4897958;29;20040;-80
2022/03/07 08:39:09;;;;;;;8.27;2.13;;;;;;;6.02;41.49;99142.69;4922144;29;20055;-80
2022/03/07 08:41:35;;;;;;;6.97;2.03;;;;;;;5.43;41.45;99019.63;4930148;29;20046;-77
2022/03/07 08:44:18;;;;;;;11.38;2.22;;;;;;;6.39;41.09;99149.53;4930999;29;20052;-79
2022/03/07 08:46:54;;;;;;;5.65;2.05;;;;;;;6.39;40.87;99149.53;4930584;29;20548;-78
2022/03/07 08:49:32;;;;;;;13.43;2.30;;;;;;;5.79;40.90;99058.31;4942427;29;20048;-79
2022/03/07 08:52:09;;;;;;;7.05;1.98;;;;;;;5.96;40.55;99084.13;4931154;29;20040;-78
2022/03/07 08:55:19;;;;;;;7.75;2.20;;;;;;;6.03;40.75;99082.44;4931169;29;20058;-79
2022/03/07 08:58:21;;;;;;;6.35;2.30;;;;;;;6.59;40.59;99141.75;4934533;29;20050;-77
2022/03/07 09:00:50;;;;;;;6.13;1.90;;;;;;;6.50;40.37;99116.78;4935447;29;20039;-78
2022/03/07 09:04:06;;;;;;;5.28;2.10;;;;;;;5.96;40.61;99021.31;4921454;29;20047;-79
2022/03/07 09:06:58;;;;;;;6.30;2.00;;;;;;;6.72;40.64;99127.91;4944483;29;20055;-77
2022/03/07 09:09:33;;;;;;;5.15;2.00;;;;;;;6.16;39.74;99023.84;4898540;29;20055;-78
2022/03/07 09:12:18;;;;;;;4.50;1.75;;;;;;;6.75;39.88;99114.09;4932458;29;20158;-78
2022/03/07 09:14:50;;;;;;;5.75;1.77;;;;;;;6.51;39.81;99030.59;4922896;29;20174;-80
2022/03/07 09:17:51;;;;;;;5.22;2.30;;;;;;;7.21;39.97;99098.31;4919949;29;20044;-80
2022/03/07 09:20:18;;;;;;;6.13;1.88;;;;;;;7.44;39.32;99123.19;4930900;29;20056;-77
2022/03/07 09:22:52;;;;;;;4.57;2.15;;;;;;;7.68;39.31;99144.59;4906926;29;20075;-79
2022/03/07 09:25:30;;;;;;;5.88;2.15;;;;;;;6.90;38.70;99013.16;4914662;29;20127;-79
2022/03/07 09:27:58;;;;;;;7.55;2.47;;;;;;;7.54;38.71;99095.50;4927297;29;20557;-77
2022/03/07 09:30:46;;;;;;;4.70;2.28;;;;;;;7.87;38.78;99140.16;4934179;28;20047;-80
2022/03/07 09:33:33;;;;;;;6.35;2.38;;;;;;;7.79;38.54;99062.50;4940263;29;20042;-80
2022/03/07 09:36:15;;;;;;;3.25;2.20;;;;;;;7.63;37.82;99016.88;4942905;29;20078;-80
2022/03/07 09:39:47;;;;;;;;;;;;;;;8.12;38.24;99134.75;4936433;29;20079;-79
2022/03/07 09:43:05;;;;;;;4.13;2.50;;;;;;;8.12;37.91;99116.59;4934595;29;19918;-81
2022/03/07 09:45:56;;;;;;;4.72;2.35;;;;;;;8.26;37.58;99132.03;4906990;29;20051;-79
2022/03/07 09:48:28;;;;;;;4.47;2.15;;;;;;;8.28;37.60;99091.38;4946797;29;20043;-79
2022/03/07 09:50:56;;;;;;;10.13;2.10;;;;;;;9.31;37.50;99112.59;4935228;29;20110;-79
2022/03/07 09:53:24;;;;;;;4.80;2.20;;;;;;;9.88;35.50;99129.03;4957776;29;20035;-79
2022/03/07 09:55:50;;;;;;;5.10;2.58;;;;;;;9.77;35.23;99107.56;4924914;29;20066;-81
2022/03/07 09:58:16;;;;;;;5.78;2.10;;;;;;;9.97;35.16;99101.16;4954750;29;20500;-78
2022/03/07 10:00:56;;;;;;;5.70;2.22;;;;;;;10.35;34.87;99097.00;4958067;23;20056;-79
2022/03/07 10:04:12;;;;;;;4.90;3.53;;;;;;;10.64;33.97;99083.44;4931873;29;20035;-80
2022/03/07 10:10:21;;;;;;;8.35;2.63;;;;;;;14.80;32.32;99131.75;4913650;29;20698;-79
2022/03/07 10:13:58;;;;;;;6.97;2.53;;;;;;;14.98;29.16;99019.38;4897850;29;20040;-79
2022/03/07 10:16:47;;;;;;;3.95;2.20;;;;;;;14.30;28.81;99094.25;4903939;29;20510;-79
2022/03/07 10:19:19;;;;;;;3.97;2.33;;;;;;;13.24;29.25;99068.09;4913326;29;20051;-78
2022/03/07 10:22:27;;;;;;;5.30;2.60;;;;;;;12.49;29.59;99126.88;4914374;29;20048;-79
2022/03/07 10:25:07;;;;;;;8.68;2.50;;;;;;;11.15;30.46;99045.88;4897078;29;20115;-80
2022/03/07 10:27:49;;;;;;;5.70;2.60;;;;;;;10.72;31.14;99075.47;4912454;29;20135;-79
2022/03/07 10:30:17;;;;;;;3.35;2.55;;;;;;;10.55;31.10;99120.06;4928952;29;20052;-78
2022/03/07 10:33:18;;;;;;;2.80;2.13;;;;;;;10.07;31.89;99121.78;4913959;29;20187;-78
2022/03/07 10:36:43;;;;;;;5.88;2.40;;;;;;;9.47;31.99;99127.94;4935431;29;20079;-78
2022/03/07 10:39:46;;;;;;;3.60;2.13;;;;;;;8.70;32.24;99058.09;4913636;29;20039;-78
2022/03/07 10:42:25;;;;;;;3.95;2.35;;;;;;;8.32;32.18;99059.34;4931904;29;20070;-77
2022/03/07 10:45:29;;;;;;;3.10;2.15;;;;;;;8.31;32.65;99124.19;4934253;29;20089;-78
2022/03/07 10:48:43;;;;;;;10.00;2.17;;;;;;;7.18;32.75;98981.88;4913267;29;20394;-80
2022/03/07 10:51:21;;;;;;;6.15;2.20;;;;;;;7.86;33.26;99127.19;4940544;29;20053;-78
2022/03/07 10:54:11;;;;;;;5.43;2.17;;;;;;;7.33;33.66;99076.66;4939261;29;20040;-77
2022/03/07 10:57:03;;;;;;;7.60;2.40;;;;;;;7.79;34.05;99129.84;4933949;29;20657;-78
2022/03/07 11:00:22;;;;;;;3.92;2.25;;;;;;;7.71;33.99;99055.69;4986990;23;20063;-80
2022/03/07 11:03:23;;;;;;;8.02;2.20;;;;;;;8.46;33.64;99126.59;4929110;29;20051;-79
2022/03/07 11:05:57;;;;;;;4.15;2.20;;;;;;;8.05;33.07;99052.75;4891490;29;20075;-79
2022/03/07 11:08:25;;;;;;;3.53;2.30;;;;;;;8.52;33.45;99115.34;4908793;29;20174;-78
2022/03/07 11:14:17;;;;;;;3.92;2.00;;;;;;;8.55;33.43;99076.41;4897583;29;20043;-80
2022/03/07 11:16:51;;;;;;;4.25;1.92;;;;;;;8.80;33.39;99127.97;4938059;29;20111;-79
2022/03/07 11:19:51;;;;;;;5.30;2.08;;;;;;;8.80;33.43;99121.06;4924507;29;20047;-78
2022/03/07 11:22:45;;;;;;;5.57;2.30;;;;;;;7.81;33.02;99008.97;4915814;29;20265;-78
2022/03/07 11:25:16;;;;;;;6.18;2.33;;;;;;;7.37;33.75;99042.13;4923355;29;20066;-79
2022/03/07 11:27:48;;;;;;;8.50;2.30;;;;;;;7.44;34.41;99084.34;4915985;29;20075;-77
2022/03/07 11:30:20;;;;;;;9.95;2.42;;;;;;;7.42;34.79;99095.59;4936767;29;20043;-78
2022/03/07 11:33:09;;;;;;;7.18;2.85;;;;;;;7.04;34.77;99038.94;4911282;29;20106;-79
2022/03/07 11:35:37;;;;;;;11.10;2.47;;;;;;;7.31;34.51;99093.94;4910849;29;20056;-79
2022/03/07 11:38:19;;;;;;;8.32;2.30;;;;;;;7.36;34.47;99135.34;4914146;29;21376;-79
2022/03/07 11:40:59;;;;;;;;;;;;;;;7.17;35.38;99124.22;4899766;29;20060;-79
2022/03/07 11:44:15;;;;;;;;;;;;;;;;;;;;;
2022/03/07 11:47:22;;;;;;;7.43;2.20;;;;;;;6.78;35.52;99151.16;4918411;29;20044;-78
2022/03/07 11:50:32;;;;;;;6.10;1.83;;;;;;;6.14;35.54;99074.66;4917177;29;20131;-79
2022/03/07 11:53:18;;;;;;;;;;;;;;;;;;;;;
2022/03/07 11:56:29;;;;;;;3.03;2.20;;;;;;;6.35;36.43;99140.06;4890923;29;20067;-78
2022/03/07 11:59:11;;;;;;;4.38;2.20;;;;;;;6.07;36.67;99104.81;4910449;29;20040;-79
2022/03/07 12:01:53;;;;;;;8.75;2.20;;;;;;;5.98;36.80;99077.25;4895183;29;20119;-77
2022/03/07 12:04:55;;;;;;;9.23;3.22;;;;;;;5.69;36.96;99077.28;4889981;29;20059;-77
2022/03/07 12:07:39;;;;;;;6.90;2.80;;;;;;;6.05;36.84;99137.53;4885203;29;20569;-78
2022/03/07 12:10:21;;;;;;;5.97;2.70;;;;;;;5.58;37.01;99056.66;4884537;29;20144;-77
2022/03/07 12:12:47;;;;;;;4.95;2.30;;;;;;;5.44;37.17;99036.00;4868575;29;20037;-78
2022/03/07 12:15:22;;;;;;;4.60;2.20;;;;;;;5.74;37.33;99103.94;4879258;29;20052;-78
2022/03/07 12:17:52;;;;;;;4.80;1.90;;;;;;;5.98;36.89;99141.81;4879837;29;20088;-78
2022/03/07 12:20:50;;;;;;;3.83;1.83;;;;;;;5.87;37.38;99143.53;4879344;29;20060;-76
2022/03/07 12:23:34;;;;;;;6.47;2.03;;;;;;;5.66;38.20;99105.69;4877895;29;20067;-78
2022/03/07 12:26:13;;;;;;;4.38;1.95;;;;;;;5.41;37.33;99048.91;4847982;29;20149;-78